createdAt,value
2019-05-29T00:01:45.699Z,9.60
2019-05-29T00:04:14.606Z,9.60
2019-05-29T00:06:43.333Z,9.60
2019-05-29T00:09:12.415Z,9.60
2019-05-29T00:11:41.196Z,9.60
2019-05-29T00:14:25.026Z,9.60
2019-05-29T00:16:40.556Z,9.60
2019-05-29T00:19:10.330Z,9.60
2019-05-29T00:21:39.195Z,9.50
2019-05-29T00:24:08.341Z,9.50
2019-05-29T00:26:37.203Z,9.50
2019-05-29T00:29:06.101Z,9.40
2019-05-29T00:31:34.864Z,9.40
2019-05-29T00:34:03.643Z,9.40
2019-05-29T00:36:32.412Z,9.40
2019-05-29T00:39:01.189Z,9.40
2019-05-29T00:41:29.961Z,9.30
2019-05-29T00:43:58.737Z,9.30
2019-05-29T00:46:27.500Z,9.30
2019-05-29T00:48:56.267Z,9.40
2019-05-29T00:51:25.231Z,9.30
2019-05-29T00:53:54.251Z,9.30
2019-05-29T00:56:23.119Z,9.30
2019-05-29T00:58:51.863Z,9.30
2019-05-29T01:01:20.755Z,9.30
2019-05-29T01:03:49.808Z,10.50
2019-05-29T01:06:20.151Z,9.30
2019-05-29T01:08:49.436Z,9.20
2019-05-29T01:11:18.900Z,9.20
2019-05-29T01:13:47.974Z,9.20
2019-05-29T01:16:17.467Z,9.20
2019-05-29T01:18:46.359Z,9.20
2019-05-29T01:21:15.959Z,9.20
2019-05-29T01:23:44.779Z,9.10
2019-05-29T01:26:14.500Z,9.20
2019-05-29T01:28:43.339Z,9.20
2019-05-29T01:31:13.230Z,9.10
2019-05-29T01:33:42.323Z,9.10
2019-05-29T01:36:11.084Z,9.10
2019-05-29T01:38:39.977Z,9.10
2019-05-29T01:41:08.759Z,9.10
2019-05-29T01:43:37.532Z,9.10
2019-05-29T01:46:06.260Z,9.10
2019-05-29T01:48:35.020Z,9.10
2019-05-29T01:51:03.869Z,9.20
2019-05-29T01:53:32.948Z,9.20
2019-05-29T01:56:01.762Z,9.10
2019-05-29T01:58:30.527Z,9.10
2019-05-29T02:00:59.616Z,9.20
2019-05-29T02:03:28.364Z,9.20
2019-05-29T02:05:57.166Z,9.10
2019-05-29T02:08:25.963Z,9.20
2019-05-29T02:10:54.707Z,9.20
2019-05-29T02:13:23.643Z,9.20
2019-05-29T02:15:52.631Z,9.20
2019-05-29T02:18:21.464Z,9.20
2019-05-29T02:20:50.225Z,9.20
2019-05-29T02:23:19.951Z,9.20
2019-05-29T02:25:48.891Z,9.20
2019-05-29T02:28:18.510Z,9.20
2019-05-29T02:30:47.449Z,9.20
2019-05-29T02:33:17.583Z,9.10
2019-05-29T02:35:46.661Z,9.20
2019-05-29T02:38:15.450Z,9.20
2019-05-29T02:40:44.338Z,9.20
2019-05-29T02:43:13.114Z,9.20
2019-05-29T02:45:53.506Z,9.20
2019-05-29T02:48:12.562Z,9.20
2019-05-29T02:50:41.655Z,9.20
2019-05-29T02:53:10.460Z,9.20
2019-05-29T02:55:39.252Z,9.10
2019-05-29T02:58:08.019Z,9.10
2019-05-29T03:00:52.887Z,9.10
2019-05-29T03:03:23.744Z,9.10
2019-05-29T03:05:54.441Z,9.10
2019-05-29T03:08:24.643Z,9.10
2019-05-29T03:10:54.117Z,9.10
2019-05-29T03:13:23.322Z,9.10
2019-05-29T03:16:09.814Z,9.10
2019-05-29T03:18:25.704Z,9.20
2019-05-29T03:20:54.615Z,9.20
2019-05-29T03:23:24.212Z,9.20
2019-05-29T03:25:53.260Z,9.20
2019-05-29T03:28:21.992Z,9.20
2019-05-29T03:30:50.766Z,9.20
2019-05-29T03:33:19.613Z,9.20
2019-05-29T03:35:48.934Z,9.20
2019-05-29T03:38:17.798Z,9.20
2019-05-29T03:40:46.723Z,9.20
2019-05-29T03:43:15.526Z,9.20
2019-05-29T03:45:44.367Z,9.20
2019-05-29T03:48:13.148Z,9.20
2019-05-29T03:50:41.948Z,9.20
2019-05-29T03:53:10.758Z,9.20
2019-05-29T03:55:39.634Z,9.30
2019-05-29T03:58:08.438Z,9.30
2019-05-29T04:00:45.447Z,9.30
2019-05-29T04:03:07.914Z,9.30
2019-05-29T04:05:38.006Z,9.30
2019-05-29T04:08:07.081Z,9.30
2019-05-29T04:10:37.815Z,9.20
2019-05-29T04:13:06.881Z,9.20
2019-05-29T04:15:36.561Z,9.30
2019-05-29T04:18:06.595Z,9.30
2019-05-29T04:20:38.848Z,9.30
2019-05-29T04:23:07.972Z,9.30
2019-05-29T04:25:42.492Z,9.30
2019-05-29T04:28:09.366Z,9.40
2019-05-29T04:30:39.113Z,9.40
2019-05-29T04:33:08.534Z,9.40
2019-05-29T04:35:39.583Z,9.40
2019-05-29T04:38:07.875Z,9.40
2019-05-29T04:40:37.449Z,9.40
2019-05-29T04:43:07.095Z,9.40
2019-05-29T04:45:39.240Z,9.40
2019-05-29T04:48:06.417Z,9.50
2019-05-29T04:50:37.647Z,9.50
2019-05-29T04:53:05.841Z,9.50
2019-05-29T04:55:34.865Z,9.50
2019-05-29T04:58:03.748Z,9.50
2019-05-29T05:00:33.098Z,9.50
2019-05-29T05:03:02.318Z,9.50
2019-05-29T05:05:31.303Z,9.50
2019-05-29T05:08:00.163Z,9.50
2019-05-29T05:10:37.789Z,9.50
2019-05-29T05:13:07.176Z,9.60
2019-05-29T05:15:36.429Z,9.60
2019-05-29T05:18:06.792Z,9.60
2019-05-29T05:20:36.229Z,9.60
2019-05-29T05:23:05.830Z,9.60
2019-05-29T05:25:36.240Z,9.70
2019-05-29T05:28:05.489Z,9.70
2019-05-29T05:30:34.504Z,9.70
2019-05-29T05:33:03.632Z,9.70
2019-05-29T05:35:32.706Z,9.70
2019-05-29T05:38:01.736Z,9.80
2019-05-29T05:40:30.835Z,9.90
2019-05-29T05:42:59.724Z,9.90
2019-05-29T05:45:28.580Z,10.00
2019-05-29T05:47:58.195Z,10.10
2019-05-29T05:50:27.192Z,10.10
2019-05-29T05:52:56.100Z,10.10
2019-05-29T05:55:25.032Z,10.10
2019-05-29T05:57:53.879Z,10.20
2019-05-29T06:00:34.007Z,10.20
2019-05-29T06:03:03.300Z,10.40
2019-05-29T06:05:32.259Z,10.40
2019-05-29T06:08:01.087Z,10.50
2019-05-29T06:10:30.104Z,10.60
2019-05-29T06:12:58.975Z,10.70
2019-05-29T06:15:27.883Z,10.60
2019-05-29T06:18:17.077Z,10.60
2019-05-29T06:20:27.187Z,10.50
2019-05-29T06:22:56.082Z,10.60
2019-05-29T06:25:25.065Z,10.60
2019-05-29T06:27:53.826Z,10.60
2019-05-29T06:30:22.945Z,10.60
2019-05-29T06:32:52.121Z,10.60
2019-05-29T06:35:21.415Z,10.60
2019-05-29T06:37:50.195Z,10.60
2019-05-29T06:40:40.186Z,10.60
2019-05-29T06:43:20.963Z,10.60
2019-05-29T06:45:50.056Z,10.60
2019-05-29T06:48:40.753Z,10.60
2019-05-29T06:50:57.459Z,10.60
2019-05-29T06:53:26.005Z,10.60
2019-05-29T06:55:56.596Z,10.60
2019-05-29T06:58:25.618Z,10.70
2019-05-29T07:00:54.395Z,10.70
2019-05-29T07:03:23.253Z,10.80
2019-05-29T07:05:52.919Z,10.90
2019-05-29T07:08:37.623Z,11.00
2019-05-29T07:10:52.470Z,11.10
2019-05-29T07:13:21.267Z,11.20
2019-05-29T07:15:50.320Z,11.30
2019-05-29T07:18:19.088Z,11.40
2019-05-29T07:20:47.984Z,11.50
2019-05-29T07:23:16.750Z,11.60
2019-05-29T07:25:45.806Z,11.70
2019-05-29T07:28:14.914Z,11.60
2019-05-29T07:30:49.559Z,11.60
2019-05-29T07:33:14.341Z,11.60
2019-05-29T07:35:43.616Z,11.60
2019-05-29T07:38:12.575Z,11.60
2019-05-29T07:40:42.702Z,11.60
2019-05-29T07:43:12.022Z,11.70
2019-05-29T07:45:42.130Z,11.80
2019-05-29T07:48:11.179Z,12.00
2019-05-29T07:50:40.169Z,12.10
2019-05-29T07:53:09.063Z,12.20
2019-05-29T07:55:38.440Z,12.40
2019-05-29T07:58:07.516Z,12.40
2019-05-29T08:00:58.760Z,12.50
2019-05-29T08:03:06.946Z,12.50
2019-05-29T08:05:35.805Z,12.40
2019-05-29T08:08:04.886Z,12.30
2019-05-29T08:10:33.686Z,12.10
2019-05-29T08:13:02.587Z,12.00
2019-05-29T08:15:31.402Z,12.00
2019-05-29T08:18:00.312Z,12.00
2019-05-29T08:20:29.167Z,12.10
2019-05-29T08:22:58.073Z,12.00
2019-05-29T08:25:26.904Z,12.00
2019-05-29T08:27:55.664Z,11.90
2019-05-29T08:30:24.582Z,12.00
2019-05-29T08:32:53.384Z,12.00
2019-05-29T08:35:22.276Z,12.00
2019-05-29T08:37:51.163Z,12.00
2019-05-29T08:40:20.572Z,11.90
2019-05-29T08:42:49.495Z,11.90
2019-05-29T08:45:18.983Z,11.80
2019-05-29T08:47:47.847Z,11.80
2019-05-29T08:50:19.149Z,11.70
2019-05-29T08:52:48.309Z,11.70
2019-05-29T08:55:17.144Z,11.50
2019-05-29T08:57:46.315Z,11.50
2019-05-29T09:00:16.028Z,11.40
2019-05-29T09:02:44.902Z,11.50
2019-05-29T09:05:14.382Z,11.50
2019-05-29T09:07:44.465Z,11.60
2019-05-29T09:10:14.429Z,11.70
2019-05-29T09:12:46.933Z,11.70
2019-05-29T09:15:20.555Z,11.70
2019-05-29T09:17:44.803Z,11.70
2019-05-29T09:20:30.599Z,11.70
2019-05-29T09:22:45.079Z,11.70
2019-05-29T09:25:15.310Z,11.70
2019-05-29T09:27:44.375Z,11.70
2019-05-29T09:30:14.956Z,11.70
2019-05-29T09:32:51.524Z,11.80
2019-05-29T09:35:16.079Z,11.80
2019-05-29T09:37:45.490Z,11.80
2019-05-29T09:40:18.965Z,11.90
2019-05-29T09:42:48.153Z,11.90
2019-05-29T09:45:17.940Z,11.90
2019-05-29T09:47:47.221Z,11.90
2019-05-29T09:50:17.461Z,11.90
2019-05-29T09:52:46.784Z,11.90
2019-05-29T09:55:15.698Z,12.00
2019-05-29T09:57:44.698Z,12.00
2019-05-29T10:00:14.912Z,12.00
2019-05-29T10:02:43.731Z,12.10
2019-05-29T10:05:13.145Z,12.20
2019-05-29T10:07:42.024Z,12.30
2019-05-29T10:10:11.799Z,12.30
2019-05-29T10:12:40.624Z,12.30
2019-05-29T10:15:18.664Z,12.40
2019-05-29T10:17:47.566Z,12.50
2019-05-29T10:20:16.984Z,12.60
2019-05-29T10:22:45.806Z,12.60
2019-05-29T10:25:15.467Z,12.60
2019-05-29T10:27:44.222Z,12.80
2019-05-29T10:30:13.967Z,12.90
2019-05-29T10:32:44.364Z,13.00
2019-05-29T10:35:13.448Z,13.10
2019-05-29T10:37:42.829Z,13.20
2019-05-29T10:40:12.467Z,13.40
2019-05-29T10:42:41.337Z,13.50
2019-05-29T10:45:11.128Z,13.60
2019-05-29T10:47:39.989Z,13.60
2019-05-29T10:50:09.702Z,13.60
2019-05-29T10:52:38.536Z,13.60
2019-05-29T10:55:08.156Z,13.60
2019-05-29T10:57:37.084Z,13.50
2019-05-29T11:00:07.198Z,13.40
2019-05-29T11:02:35.986Z,13.40
2019-05-29T11:05:05.397Z,13.30
2019-05-29T11:07:34.242Z,13.30
2019-05-29T11:10:03.141Z,13.40
2019-05-29T11:12:31.968Z,13.30
2019-05-29T11:15:00.799Z,13.20
2019-05-29T11:17:29.762Z,13.20
2019-05-29T11:19:58.671Z,13.30
2019-05-29T11:22:27.630Z,13.30
2019-05-29T11:24:56.732Z,13.40
2019-05-29T11:27:26.195Z,13.30
2019-05-29T11:29:55.640Z,13.40
2019-05-29T11:32:25.683Z,13.40
2019-05-29T11:34:55.521Z,13.30
2019-05-29T11:37:24.523Z,13.30
2019-05-29T11:39:54.802Z,13.10
2019-05-29T11:42:27.301Z,13.10
2019-05-29T11:44:55.273Z,13.00
2019-05-29T11:47:24.154Z,13.00
2019-05-29T11:49:53.237Z,13.00
2019-05-29T11:52:24.931Z,13.00
2019-05-29T11:54:56.553Z,12.90
2019-05-29T11:57:23.437Z,12.90
2019-05-29T11:59:53.488Z,12.90
2019-05-29T12:02:22.552Z,12.80
2019-05-29T12:04:51.451Z,12.80
2019-05-29T12:07:20.221Z,12.90
2019-05-29T12:09:48.993Z,12.90
2019-05-29T12:12:17.804Z,12.90
2019-05-29T12:15:01.621Z,12.90
2019-05-29T12:17:17.216Z,13.10
2019-05-29T12:19:46.041Z,13.10
2019-05-29T12:22:14.792Z,13.30
2019-05-29T12:24:43.556Z,13.40
2019-05-29T12:27:12.347Z,13.60
2019-05-29T12:29:41.153Z,13.70
2019-05-29T12:32:11.688Z,13.70
2019-05-29T12:34:52.766Z,13.80
2019-05-29T12:37:10.931Z,13.90
2019-05-29T12:39:39.728Z,14.00
2019-05-29T12:42:08.553Z,14.10
2019-05-29T12:44:37.346Z,14.10
2019-05-29T12:47:06.190Z,14.10
2019-05-29T12:49:34.963Z,14.10
2019-05-29T12:52:07.623Z,14.20
2019-05-29T12:54:34.531Z,14.30
2019-05-29T12:57:04.273Z,14.40
2019-05-29T12:59:33.117Z,14.40
2019-05-29T13:02:02.685Z,14.40
2019-05-29T13:04:31.478Z,14.50
2019-05-29T13:07:00.515Z,14.50
2019-05-29T13:09:29.201Z,14.50
2019-05-29T13:11:58.453Z,14.60
2019-05-29T13:14:27.289Z,14.70
2019-05-29T13:16:56.687Z,14.90
2019-05-29T13:19:25.716Z,15.00
2019-05-29T13:21:55.026Z,15.10
2019-05-29T13:24:23.923Z,15.10
2019-05-29T13:26:52.669Z,15.10
2019-05-29T13:29:21.600Z,15.30
2019-05-29T13:31:50.429Z,15.60
2019-05-29T13:34:19.234Z,16.10
2019-05-29T13:36:48.115Z,16.30
2019-05-29T13:39:16.986Z,16.30
2019-05-29T13:41:45.796Z,16.30
2019-05-29T13:44:14.524Z,16.30
2019-05-29T13:46:43.377Z,16.30
2019-05-29T13:49:12.229Z,16.10
2019-05-29T13:51:41.015Z,15.90
2019-05-29T13:54:14.232Z,16.00
2019-05-29T13:56:40.442Z,16.00
2019-05-29T13:59:09.386Z,15.90
2019-05-29T14:01:38.372Z,15.80
2019-05-29T14:04:08.463Z,15.70
2019-05-29T14:06:37.595Z,15.70
2019-05-29T14:09:09.935Z,15.70
2019-05-29T14:11:38.682Z,15.50
2019-05-29T14:14:09.450Z,15.30
2019-05-29T14:16:37.981Z,15.10
2019-05-29T14:19:06.968Z,15.10
2019-05-29T14:21:35.808Z,15.20
2019-05-29T14:24:23.550Z,15.10
2019-05-29T14:26:35.345Z,15.20
2019-05-29T14:29:05.863Z,15.20
2019-05-29T14:31:34.939Z,15.30
2019-05-29T14:34:05.054Z,15.40
2019-05-29T14:36:33.994Z,15.70
2019-05-29T14:39:03.720Z,16.00
2019-05-29T14:41:32.760Z,16.20
2019-05-29T14:44:01.753Z,16.20
2019-05-29T14:46:30.714Z,16.20
2019-05-29T14:48:59.971Z,16.10
2019-05-29T14:51:28.768Z,16.10
2019-05-29T14:53:57.601Z,16.10
2019-05-29T14:56:26.378Z,16.20
2019-05-29T14:58:55.267Z,16.30
2019-05-29T15:01:24.211Z,16.30
2019-05-29T15:03:53.050Z,16.10
2019-05-29T15:06:21.943Z,16.10
2019-05-29T15:08:50.871Z,16.10
2019-05-29T15:11:19.643Z,16.00
2019-05-29T15:13:48.491Z,15.90
2019-05-29T15:16:17.239Z,15.70
2019-05-29T15:18:46.644Z,15.60
2019-05-29T15:21:15.487Z,15.40
2019-05-29T15:23:47.416Z,15.30
2019-05-29T15:26:16.520Z,15.20
2019-05-29T15:28:46.832Z,15.20
2019-05-29T15:31:16.568Z,15.10
2019-05-29T15:33:45.331Z,14.90
2019-05-29T15:36:14.634Z,14.90
2019-05-29T15:38:43.570Z,14.90
2019-05-29T15:41:12.791Z,14.90
2019-05-29T15:43:41.791Z,14.90
2019-05-29T15:46:12.147Z,14.90
2019-05-29T15:48:42.332Z,14.80
2019-05-29T15:51:11.221Z,14.90
2019-05-29T15:53:40.044Z,14.90
2019-05-29T15:56:21.636Z,15.10
2019-05-29T15:58:39.421Z,15.20
2019-05-29T16:01:09.654Z,15.20
2019-05-29T16:03:38.506Z,15.40
2019-05-29T16:06:07.697Z,15.40
2019-05-29T16:08:36.900Z,15.50
2019-05-29T16:11:05.819Z,15.50
2019-05-29T16:13:34.756Z,15.50
2019-05-29T16:16:03.628Z,15.50
2019-05-29T16:18:32.485Z,15.40
2019-05-29T16:21:01.343Z,15.40
2019-05-29T16:23:35.794Z,15.40
2019-05-29T16:26:04.711Z,15.40
2019-05-29T16:28:33.491Z,15.30
2019-05-29T16:31:02.267Z,15.30
2019-05-29T16:33:31.137Z,15.10
2019-05-29T16:35:59.957Z,15.10
2019-05-29T16:38:28.823Z,15.20
2019-05-29T16:40:58.011Z,15.30
2019-05-29T16:43:26.978Z,15.30
2019-05-29T16:45:55.809Z,15.30
2019-05-29T16:48:24.756Z,15.30
2019-05-29T16:50:53.631Z,15.40
2019-05-29T16:53:23.289Z,15.40
2019-05-29T16:55:54.068Z,15.40
2019-05-29T16:58:23.406Z,15.40
2019-05-29T17:00:52.324Z,15.30
2019-05-29T17:03:21.668Z,15.30
2019-05-29T17:05:50.673Z,15.20
2019-05-29T17:08:20.314Z,15.20
2019-05-29T17:10:49.167Z,15.10
2019-05-29T17:13:18.680Z,15.00
2019-05-29T17:15:47.500Z,14.90
2019-05-29T17:18:16.533Z,14.90
2019-05-29T17:20:46.112Z,14.80
2019-05-29T17:23:16.602Z,14.80
2019-05-29T17:25:45.735Z,14.70
2019-05-29T17:28:15.005Z,14.60
2019-05-29T17:30:43.942Z,14.60
2019-05-29T17:33:12.842Z,14.60
2019-05-29T17:35:41.726Z,14.50
2019-05-29T17:38:10.735Z,14.50
2019-05-29T17:40:39.574Z,14.40
2019-05-29T17:43:08.459Z,14.40
2019-05-29T17:45:37.473Z,14.40
2019-05-29T17:48:06.401Z,14.40
2019-05-29T17:50:35.219Z,14.40
2019-05-29T17:53:04.185Z,14.40
2019-05-29T17:55:33.076Z,14.40
2019-05-29T17:58:01.922Z,14.40
2019-05-29T18:00:30.900Z,14.40
2019-05-29T18:03:00.987Z,14.30
2019-05-29T18:05:29.803Z,14.30
2019-05-29T18:08:01.716Z,14.30
2019-05-29T18:10:29.463Z,14.30
2019-05-29T18:12:58.232Z,14.20
2019-05-29T18:15:27.763Z,14.10
2019-05-29T18:17:56.726Z,14.10
2019-05-29T18:20:25.966Z,14.10
2019-05-29T18:22:54.985Z,14.00
2019-05-29T18:25:24.057Z,13.90
2019-05-29T18:27:52.971Z,13.90
2019-05-29T18:30:22.620Z,13.80
2019-05-29T18:32:51.602Z,13.80
2019-05-29T18:35:22.919Z,13.70
2019-05-29T18:37:52.137Z,13.60
2019-05-29T18:40:22.317Z,13.50
2019-05-29T18:42:51.375Z,13.50
2019-05-29T18:45:23.436Z,13.50
2019-05-29T18:47:51.534Z,13.40
2019-05-29T18:50:21.510Z,13.30
2019-05-29T18:52:50.913Z,13.20
2019-05-29T18:55:20.738Z,13.20
2019-05-29T18:57:49.863Z,13.00
2019-05-29T19:00:21.287Z,13.00
2019-05-29T19:02:50.584Z,12.90
2019-05-29T19:05:19.583Z,12.80
2019-05-29T19:07:48.640Z,12.70
2019-05-29T19:11:29.996Z,12.60
2019-05-29T19:14:02.639Z,12.50
2019-05-29T19:16:32.166Z,12.40
2019-05-29T19:19:01.488Z,12.30
2019-05-29T19:21:30.575Z,12.20
2019-05-29T19:23:59.587Z,12.10
2019-05-29T19:26:28.818Z,12.00
2019-05-29T19:28:57.845Z,11.90
2019-05-29T19:31:27.070Z,11.90
2019-05-29T19:33:56.175Z,11.80
2019-05-29T19:36:25.541Z,11.70
2019-05-29T19:38:54.505Z,11.60
2019-05-29T19:41:23.932Z,11.50
2019-05-29T19:43:53.412Z,11.40
2019-05-29T19:46:22.223Z,11.30
2019-05-29T19:48:51.259Z,11.30
2019-05-29T19:51:20.470Z,11.20
2019-05-29T19:53:49.311Z,11.10
2019-05-29T19:56:21.209Z,11.00
2019-05-29T19:58:50.097Z,10.90
2019-05-29T20:01:30.641Z,10.80
2019-05-29T20:03:49.648Z,10.80
2019-05-29T20:06:19.243Z,10.70
2019-05-29T20:08:48.164Z,10.60
2019-05-29T20:11:17.220Z,10.50
2019-05-29T20:13:46.082Z,10.40
2019-05-29T20:16:14.925Z,10.40
2019-05-29T20:18:47.402Z,10.30
2019-05-29T20:21:16.270Z,10.30
2019-05-29T20:23:46.001Z,10.20
2019-05-29T20:26:14.903Z,10.20
2019-05-29T20:28:43.833Z,10.10
2019-05-29T20:31:12.672Z,10.00
2019-05-29T20:33:42.734Z,9.90
2019-05-29T20:36:11.683Z,9.90
2019-05-29T20:38:41.352Z,9.80
2019-05-29T20:41:10.278Z,9.80
2019-05-29T20:43:39.766Z,9.70
2019-05-29T20:46:08.751Z,9.70
2019-05-29T20:48:38.700Z,9.70
2019-05-29T20:51:07.714Z,9.70
2019-05-29T20:53:37.484Z,9.60
2019-05-29T20:56:06.647Z,9.60
2019-05-29T20:58:35.700Z,9.50
2019-05-29T21:01:04.632Z,9.40
2019-05-29T21:03:34.326Z,9.40
2019-05-29T21:06:04.079Z,9.40
2019-05-29T21:08:32.890Z,9.30
2019-05-29T21:11:01.775Z,9.20
2019-05-29T21:13:30.654Z,9.10
2019-05-29T21:15:59.582Z,9.00
2019-05-29T21:18:28.558Z,9.00
2019-05-29T21:20:57.437Z,8.90
2019-05-29T21:23:26.304Z,8.90
2019-05-29T21:25:55.102Z,8.80
2019-05-29T21:28:39.017Z,8.80
2019-05-29T21:30:54.526Z,8.70
2019-05-29T21:33:23.494Z,8.70
2019-05-29T21:35:52.416Z,9.70
2019-05-29T21:38:21.171Z,8.70
2019-05-29T21:40:50.036Z,8.60
2019-05-29T21:43:18.939Z,8.50
2019-05-29T21:45:47.752Z,8.50
2019-05-29T21:48:16.607Z,8.40
2019-05-29T21:50:45.562Z,8.40
2019-05-29T21:53:14.336Z,8.30
2019-05-29T21:55:43.687Z,8.20
2019-05-29T21:58:12.693Z,8.20
2019-05-29T22:00:49.303Z,8.10
2019-05-29T22:03:18.224Z,8.10
2019-05-29T22:05:47.240Z,8.10
2019-05-29T22:08:16.231Z,8.10
2019-05-29T22:10:45.238Z,8.10
2019-05-29T22:13:14.031Z,8.10
2019-05-29T22:15:42.993Z,8.10
2019-05-29T22:18:11.898Z,8.00
2019-05-29T22:20:40.707Z,8.00
2019-05-29T22:23:09.575Z,7.90
2019-05-29T22:25:38.526Z,7.90
2019-05-29T22:28:07.289Z,7.80
2019-05-29T22:30:36.131Z,7.70
2019-05-29T22:33:05.065Z,7.70
2019-05-29T22:35:34.038Z,7.70
2019-05-29T22:38:02.815Z,7.60
2019-05-29T22:40:31.636Z,7.60
2019-05-29T22:43:01.818Z,7.60
2019-05-29T22:45:30.734Z,7.60
2019-05-29T22:47:59.911Z,7.50
2019-05-29T22:50:29.068Z,7.40
2019-05-29T22:52:57.875Z,7.40
2019-05-29T22:55:26.665Z,7.40
2019-05-29T22:57:55.941Z,7.30
2019-05-29T23:00:24.943Z,7.30
2019-05-29T23:02:56.130Z,7.20
2019-05-29T23:05:25.033Z,7.20
2019-05-29T23:07:54.199Z,7.10
2019-05-29T23:10:23.464Z,7.10
2019-05-29T23:12:52.915Z,7.10
2019-05-29T23:15:22.155Z,7.10
2019-05-29T23:17:52.352Z,7.10
2019-05-29T23:20:21.255Z,7.10
2019-05-29T23:22:50.148Z,7.10
2019-05-29T23:25:18.931Z,7.00
2019-05-29T23:27:47.824Z,7.00
2019-05-29T23:30:16.911Z,7.00
2019-05-29T23:32:45.771Z,6.90
2019-05-29T23:35:14.699Z,6.90
2019-05-29T23:37:43.542Z,6.80
2019-05-29T23:40:12.800Z,6.80
2019-05-29T23:42:41.537Z,6.70
2019-05-29T23:45:11.192Z,6.70
2019-05-29T23:47:39.931Z,6.60
2019-05-29T23:50:09.631Z,6.50
2019-05-29T23:52:38.517Z,6.50
2019-05-29T23:55:08.019Z,6.50
2019-05-29T23:57:36.807Z,6.50
